Private Wetterstation Nrnberg - Katzwang
Wetterdaten: Dezember 2011
Datum Temp. A. Feuchte A. Luftdruck Regen Wind Richtung Taupunkt Windchill Windben
01.12.2011 6,2 C 87 % 1019 hPa 0,5 l/m 9,0 km/h NO 4,2 C 3,9 C 10,3 km/h
02.12.2011 7,8 C 82 % 1011 hPa 1,0 l/m 5,5 km/h W-NW 4,8 C 6,6 C 6,7 km/h
03.12.2011 6,1 C 82 % 1010 hPa 0,0 l/m 8,2 km/h W-NW 3,2 C 3,6 C 13,7 km/h
04.12.2011 8,5 C 86 % 1002 hPa 7,8 l/m 8,4 km/h W-NW 6,3 C 6,5 C 10,5 km/h
05.12.2011 4,8 C 81 % 1001 hPa 6,2 l/m 10,1 km/h W-NW 1,7 C 1,7 C 14,9 km/h
06.12.2011 2,4 C 87 % 1007 hPa 2,6 l/m 4,7 km/h W-NW 0,4 C 1,5 C 6,2 km/h
07.12.2011 3,1 C 88 % 1005 hPa 11,9 l/m 8,2 km/h W-NW 1,2 C 0,7 C 10,7 km/h
08.12.2011 3,8 C 77 % 1017 hPa 0,0 l/m 10,8 km/h W-NW 0,2 C 0,3 C 16,3 km/h
09.12.2011 5,3 C 84 % 1010 hPa 7,3 l/m 7,6 km/h W-NW 2,8 C 3,3 C 9,8 km/h
10.12.2011 1,7 C 86 % 1013 hPa 0,0 l/m 1,7 km/h W-NW -0,4 C 1,4 C 2,8 km/h
11.12.2011 -0,6 C 87 % 1015 hPa 0,0 l/m 2,8 km/h NO -2,5 C -1,1 C 3,8 km/h
12.12.2011 3,8 C 88 % 1009 hPa 3,1 l/m 9,1 km/h N 2,0 C 0,8 C 11,5 km/h
13.12.2011 3,1 C 86 % 1007 hPa 1,0 l/m 9,7 km/h N-NO 1,0 C 0,2 C 12,1 km/h
14.12.2011 6,5 C 83 % 1005 hPa 0,5 l/m 11,2 km/h W-NW 3,7 C 3,2 C 16,0 km/h
15.12.2011 3,9 C 83 % 1007 hPa 0,5 l/m 7,0 km/h N-NW 1,2 C 2,1 C 8,6 km/h
16.12.2011 5,0 C 86 % 987 hPa 14,5 l/m 18,5 km/h W-NW 2,9 C -1,7 C 33,0 km/h
17.12.2011 2,3 C 85 % 998 hPa 1,6 l/m 10,8 km/h W-NW 0,1 C -1,3 C 15,2 km/h
18.12.2011 1,1 C 84 % 1007 hPa 0,0 l/m 4,0 km/h W-NW -1,3 C 0,2 C 5,1 km/h
19.12.2011 -0,2 C 85 % 1015 hPa 0,5 l/m 2,6 km/h W-NW -2,4 C -0,6 C 3,6 km/h
20.12.2011 -0,3 C 85 % 1009 hPa 0,0 l/m 6,5 km/h N-NO -2,5 C -2,3 C 7,8 km/h
21.12.2011 2,0 C 88 % 1014 hPa 2,1 l/m 5,1 km/h W-NW 0,2 C 0,7 C 6,6 km/h
22.12.2011 2,9 C 88 % 1019 hPa 3,6 l/m 1,6 km/h N-NO 1,2 C 2,7 C 2,6 km/h
23.12.2011 6,6 C 88 % 1019 hPa 0,5 l/m 1,6 km/h W-NW 4,8 C 6,4 C 2,6 km/h
24.12.2011 4,9 C 84 % 1019 hPa 1,0 l/m 9,8 km/h W-NW 2,4 C 1,8 C 15,1 km/h
25.12.2011 3,5 C 83 % 1031 hPa 0,0 l/m 4,6 km/h W-NW 1,0 C 2,6 C 5,6 km/h
26.12.2011 6,1 C 87 % 1034 hPa 0,0 l/m 1,9 km/h W-NW 4,1 C 5,9 C 2,9 km/h
27.12.2011 6,0 C 88 % 1033 hPa 0,5 l/m 0,6 km/h N-NW 4,1 C 6,0 C 1,6 km/h
28.12.2011 3,6 C 87 % 1025 hPa 0,0 l/m 6,2 km/h NO 1,7 C 2,0 C 7,6 km/h
29.12.2011 3,6 C 83 % 1019 hPa 1,0 l/m 7,3 km/h W-NW 1,1 C 1,7 C 10,6 km/h
30.12.2011 2,4 C 85 % 1009 hPa 4,7 l/m 9,3 km/h W-NW 0,2 C -0,5 C 14,0 km/h
31.12.2011 2,2 C 88 % 1012 hPa 2,6 l/m 3,9 km/h N 0,4 C 1,6 C 4,9 km/h
Min-Datum 11.12.11 03.12.11 16.12.11 22 Tage 01.12.11 - 11.12.11 17.12.11 01.12.11
Min-Zeit 06:50 14:00 14:10 - 00:00 - 06:50 02:50 00:00
Minimum -5,4 C 64 % 974 hPa - 0,0 km/h - -7,1 C -14,7 C 1,0 km/h
Max-Datum 02.12.11 01.12.11 26.12.11 16.12.11 16.12.11 - 04.12.11 02.12.11 07.12.11
Max-Zeit 13:40 00:00 09:20 11:10 09:40 - 13:10 13:30 16:10
Maximum 12,8 C 89 % 1035 hPa 14,5 l/m 52,7 km/h
W-NW
- 8,2 C 12,6 C 79,0 km/h
W-NW
Durchschnitt 3,8 C 85 % 1013 hPa #75,1 l/m 6,7 km/h W-NW 1,5 C 1,9 C 9,4 km/h

Durchschnitt Minimum Temp.1,5 C
Durchschnitt Maximum Temp.6,3 C